Latest Weather Observations for Maningrida Airport

IDD60801

Issued at 6:41 am CST Tuesday 4 August 2020 (issued every 10 minutes, with the page automatically refreshed every 10 minutes)

About weather observations | Map of weather stations | Latest weather observations for NT | Other Formats
Station Details ID: 014405 Name: MANINGRIDA AIRPORT Lat: -12.06 Lon: 134.23 Height: 28.1 m
Data from the previous 72 hours. | See also: Recent months at Maningrida Airport
Date/Time
CST
Temp
°C
App
Temp
°C
Dew
Point
°C
Rel
Hum
%
Delta-T
°C
Wind Press
QNH
hPa
Press
MSL
hPa
Rain since
9am
mm
Dir  Spd
km/h
Gust
km/h
Spd
kts
Gust
kts
04/06:34am 19.2 20.7 18.0 93 0.7 SSW 7 11 4 6 1011.4 1011.2 0.0
04/06:30am 19.1 20.5 17.9 93 0.7 SSW 7 13 4 7 1011.4 1011.2 0.0
04/06:20am 19.3 20.8 18.0 92 0.8 S 7 11 4 6 1011.4 1011.2 0.0
04/06:00am 19.7 21.3 17.8 89 1.2 SE 6 7 3 4 1011.1 1011.0 0.0
04/05:30am 20.2 21.5 18.5 90 1.1 SE 9 11 5 6 1010.9 1010.8 0.0
04/05:00am 20.3 21.7 18.6 90 1.1 SSE 9 11 5 6 1011.0 1010.9 0.0
04/04:30am 20.5 22.2 18.6 89 1.2 SSE 7 11 4 6 1010.8 1010.7 0.0
04/04:00am 21.0 22.8 18.8 87 1.4 SSE 7 11 4 6 1010.8 1010.7 0.0
04/03:30am 21.4 22.6 19.1 87 1.5 ESE 11 13 6 7 1010.7 1010.6 0.0
04/03:00am 21.5 23.2 19.4 88 1.3 SE 9 13 5 7 1011.1 1011.0 0.0
04/02:30am 21.4 23.7 19.5 89 1.2 SE 6 7 3 4 1011.4 1011.2 0.0
04/02:18am 21.6 23.9 19.5 88 1.3 SE 6 7 3 4 1011.5 1011.3 0.0
04/02:01am 22.0 24.2 19.7 87 1.5 ESE 7 9 4 5 1011.7 1011.5 0.0
04/02:00am 22.0 24.2 19.7 87 1.5 ESE 7 9 4 5 1011.7 1011.5 0.0
04/01:33am 22.4 24.9 19.9 86 1.6 ESE 6 7 3 4 1011.9 1011.7 0.0
04/01:30am 22.5 25.1 20.0 86 1.6 ESE 6 7 3 4 1011.9 1011.7 0.0
04/01:03am 23.0 25.6 20.0 83 1.9 ESE 6 7 3 4 1012.0 1011.8 0.0
04/01:00am 23.1 25.7 20.1 83 1.9 ESE 6 7 3 4 1012.0 1011.8 0.0
04/12:30am 23.6 26.4 20.5 83 2.0 E 6 9 3 5 1012.2 1012.0 0.0
04/12:00am 23.7 26.0 20.6 83 2.0 E 9 13 5 7 1012.1 1011.9 0.0
 
Date/Time
CST
Temp
°C
App
Temp
°C
Dew
Point
°C
Rel
Hum
%
Delta-T
°C
Wind Press
QNH
hPa
Press
MSL
hPa
Rain since
9am
mm
Dir  Spd
km/h
Gust
km/h
Spd
kts
Gust
kts
03/11:30pm 23.7 26.0 20.6 83 2.0 E 9 13 5 7 1012.1 1011.9 0.0
03/11:00pm 23.7 26.0 20.6 83 2.0 ENE 9 13 5 7 1012.2 1012.0 0.0
03/10:30pm 23.4 25.6 20.3 83 2.0 E 9 11 5 6 1012.0 1011.8 0.0
03/10:00pm 23.5 25.6 20.2 82 2.1 E 9 13 5 7 1011.7 1011.5 0.0
03/09:30pm 23.6 25.7 20.1 81 2.3 ENE 9 11 5 6 1011.5 1011.3 0.0
03/09:00pm 23.7 25.8 20.2 81 2.3 ENE 9 13 5 7 1011.1 1011.0 0.0
03/08:30pm 23.9 25.6 20.2 80 2.4 ENE 11 15 6 8 1011.0 1010.9 0.0
03/08:00pm 23.9 26.1 20.4 81 2.3 ENE 9 11 5 6 1010.9 1010.8 0.0
03/07:30pm 24.2 26.4 20.5 80 2.4 ENE 9 15 5 8 1010.6 1010.5 0.0
03/07:00pm 24.5 26.2 20.2 77 2.8 ENE 11 17 6 9 1010.4 1010.3 0.0
03/06:30pm 24.9 26.0 19.7 73 3.4 ENE 13 22 7 12 1010.2 1010.1 0.0
03/06:00pm 25.8 26.6 19.0 66 4.4 ENE 13 20 7 11 1010.0 1009.9 0.0
03/05:30pm 26.8 26.9 18.4 60 5.4 NE 15 20 8 11 1009.8 1009.7 0.0
03/05:00pm 27.3 26.5 18.0 56 5.9 NE 19 24 10 13 1009.7 1009.6 0.0
03/04:30pm 28.3 26.9 16.6 49 7.3 NNE 19 28 10 15 1009.7 1009.6 0.0
03/04:00pm 29.3 28.3 16.5 46 8.0 NE 17 24 9 13 1009.6 1009.5 0.0
03/03:30pm 29.2 28.4 16.0 44 8.2 NE 15 22 8 12 1009.8 1009.7 0.0
03/03:00pm 29.5 28.5 16.7 46 8.0 NE 17 24 9 13 1010.1 1010.0 0.0
03/02:30pm 29.2 28.6 16.7 46 7.8 ENE 15 22 8 12 1010.5 1010.4 0.0
03/02:00pm 29.9 29.1 17.0 45 8.1 NE 17 26 9 14 1010.9 1010.8 0.0
03/01:30pm 29.9 29.7 16.7 45 8.3 NE 13 20 7 11 1011.4 1011.2 0.0
03/01:00pm 28.4 27.9 17.0 50 7.2 E 15 22 8 12 1011.7 1011.5 0.0
03/12:30pm 28.3 28.6 16.9 50 7.1 SSE 11 17 6 9 1012.0 1011.8 0.0
03/12:00pm 29.1 29.1 17.3 49 7.5 ESE 13 28 7 15 1012.5 1012.3 0.0
03/11:30am 29.2 29.4 17.7 50 7.3 ESE 13 20 7 11 1012.8 1012.6 0.0
03/11:00am 27.8 28.0 17.6 53 6.4 ESE 13 20 7 11 1013.2 1013.0 0.0
03/10:30am 26.5 26.1 18.1 60 5.3 ESE 17 22 9 12 1013.6 1013.4 0.0
03/10:00am 26.1 25.8 18.2 61 5.0 E 17 26 9 14 1013.8 1013.6 0.0
03/09:30am 25.2 25.6 18.9 68 4.0 SE 15 20 8 11 1013.9 1013.7 0.0
03/09:00am 23.8 23.8 18.2 71 3.5 SE 15 19 8 10 1013.9 1013.7 0.0
03/08:30am 23.0 23.1 18.3 75 3.0 SSE 15 20 8 11 1013.6 1013.4 0.0
03/08:00am 21.3 22.9 18.3 83 1.9 S 7 13 4 7 1013.4 1013.2 0.0
03/07:30am 19.4 20.6 18.2 93 0.7 S 9 11 5 6 1013.2 1013.0 0.0
03/07:26am 19.4 21.0 18.2 93 0.7 S 7 11 4 6 1013.1 1012.9 0.0
03/07:16am 18.9 20.3 17.7 93 0.7 S 7 9 4 5 1013.1 1012.9 0.0
03/07:05am 18.8 20.1 17.6 93 0.7 S 7 9 4 5 1013.0 1012.8 0.0
03/07:00am 18.7 20.0 17.5 93 0.7 S 7 9 4 5 1012.9 1012.7 0.0
03/06:51am 18.6 19.8 17.4 93 0.7 S 7 9 4 5 1012.9 1012.7 0.0
03/06:30am 18.7 20.0 17.5 93 0.7 S 7 9 4 5 1012.7 1012.5 0.0
03/06:00am 18.6 19.7 17.1 91 0.9 S 7 9 4 5 1012.5 1012.3 0.0
03/05:30am 19.3 21.0 18.0 92 0.8 S 6 9 3 5 1012.3 1012.1 0.0
03/05:00am 19.4 20.9 18.1 92 0.8 S 7 9 4 5 1012.1 1011.9 0.0
03/04:30am 19.6 20.7 18.1 91 0.9 SSE 9 9 5 5 1012.1 1011.9 0.0
03/04:00am 19.4 20.8 17.9 91 0.9 S 7 9 4 5 1012.1 1011.9 0.0
03/03:30am 19.5 20.9 17.8 90 1.0 S 7 9 4 5 1012.0 1011.8 0.0
03/03:00am 19.5 20.8 17.5 88 1.2 S 7 9 4 5 1012.1 1011.9 0.0
03/02:30am 20.1 21.5 17.9 87 1.4 SSE 7 9 4 5 1012.2 1012.0 0.0
03/02:00am 20.1 21.6 17.7 86 1.5 S 6 7 3 4 1012.5 1012.3 0.0
03/01:30am 20.5 22.2 18.1 86 1.5 S 6 9 3 5 1012.7 1012.5 0.0
03/01:00am 21.0 22.3 18.4 85 1.6 S 9 11 5 6 1012.8 1012.6 0.0
03/12:30am 21.0 22.4 18.6 86 1.5 SSE 9 11 5 6 1012.7 1012.5 0.0
03/12:00am 21.3 23.2 18.9 86 1.5 SSE 7 9 4 5 1012.7 1012.5 0.0
 
Date/Time
CST
Temp
°C
App
Temp
°C
Dew
Point
°C
Rel
Hum
%
Delta-T
°C
Wind Press
QNH
hPa
Press
MSL
hPa
Rain since
9am
mm
Dir  Spd
km/h
Gust
km/h
Spd
kts
Gust
kts
02/11:43pm 21.6 23.5 19.0 85 1.6 SSE 7 9 4 5 1012.8 1012.6 0.0
02/11:33pm 21.6 23.4 18.8 84 1.8 SSE 7 9 4 5 1012.9 1012.7 0.0
02/11:30pm 21.7 23.6 18.9 84 1.8 SSE 7 9 4 5 1012.9 1012.7 0.0
02/11:13pm 21.8 23.7 19.0 84 1.8 SSE 7 9 4 5 1012.9 1012.7 0.0
02/11:00pm 21.5 23.2 18.5 83 1.9 SSE 7 11 4 6 1012.9 1012.7 0.0
02/10:47pm 21.2 22.8 17.8 81 2.1 SSE 6 7 3 4 1012.8 1012.6 0.0
02/10:30pm 21.4 23.1 18.0 81 2.1 SSE 6 7 3 4 1012.8 1012.6 0.0
02/10:00pm 21.9 23.6 18.1 79 2.4 ESE 6 7 3 4 1012.7 1012.5 0.0
02/09:41pm 21.8 24.5 17.8 78 2.5 CALM 0 0 0 0 1012.5 1012.3 0.0
02/09:30pm 22.0 24.8 18.0 78 2.5 CALM 0 0 0 0 1012.5 1012.3 0.0
02/09:00pm 22.6 24.9 17.7 74 3.0 ENE 2 6 1 3 1012.1 1011.9 0.0
02/08:30pm 23.0 24.7 18.1 74 3.1 NE 6 7 3 4 1011.7 1011.5 0.0
02/08:00pm 23.1 24.7 17.8 72 3.3 NE 6 9 3 5 1011.3 1011.1 0.0
02/07:30pm 23.7 25.1 17.4 68 3.9 NE 6 6 3 3 1011.0 1010.9 0.0
02/07:00pm 24.3 25.8 17.5 66 4.2 NE 6 7 3 4 1010.9 1010.8 0.0
02/06:30pm 24.7 25.8 17.2 63 4.7 NE 7 9 4 5 1010.8 1010.7 0.0
02/06:00pm 25.5 25.4 16.9 59 5.3 NNE 13 15 7 8 1010.8 1010.7 0.0
02/05:30pm 26.2 25.7 17.0 57 5.7 N 15 20 8 11 1010.5 1010.4 0.0
02/05:00pm 27.6 26.6 15.6 48 7.3 NNE 15 20 8 11 1010.3 1010.2 0.0
02/04:30pm 28.9 28.4 15.8 45 8.1 NE 13 17 7 9 1010.3 1010.2 0.0
02/04:00pm 28.6 27.3 14.8 43 8.4 NE 15 24 8 13 1010.2 1010.1 0.0
02/03:30pm 28.6 26.4 14.4 41 8.6 NE 19 24 10 13 1010.3 1010.2 0.0
02/03:00pm 28.9 27.3 15.1 43 8.4 NE 17 24 9 13 1010.7 1010.6 0.0
02/02:30pm 28.4 26.5 15.7 46 7.8 N 20 24 11 13 1011.1 1011.0 0.0
02/02:00pm 29.2 27.4 13.4 38 9.4 E 15 22 8 12 1011.5 1011.3 0.0
02/01:30pm 29.4 27.9 13.2 37 9.6 ENE 13 22 7 12 1011.9 1011.7 0.0
02/01:00pm 28.7 27.0 12.6 37 9.4 NE 13 20 7 11 1012.3 1012.1 0.0
02/12:30pm 28.7 26.3 12.6 37 9.4 NNE 17 24 9 13 1012.8 1012.6 0.0
02/12:00pm 28.4 25.5 12.3 37 9.4 E 19 30 10 16 1013.2 1013.0 0.0
02/11:30am 27.6 24.9 12.8 40 8.7 E 19 28 10 15 1013.7 1013.5 0.0
02/11:00am 27.4 24.9 11.0 36 9.3 ESE 15 26 8 14 1014.3 1014.1 0.0
02/10:30am 26.2 22.8 10.4 37 8.8 ESE 19 28 10 15 1014.6 1014.4 0.0
02/10:00am 25.7 22.6 11.5 41 8.1 SE 19 24 10 13 1014.9 1014.7 0.0
02/09:30am 24.7 22.4 13.0 48 6.8 ESE 17 28 9 15 1015.1 1014.9 0.0
02/09:00am 23.0 21.9 15.3 62 4.6 SE 15 24 8 13 1015.1 1014.9 0.0
02/08:30am 21.5 21.5 18.1 81 2.1 ESE 15 22 8 12 1015.0 1014.8 0.0
02/08:00am 19.1 20.2 17.9 93 0.7 SE 9 13 5 7 1014.7 1014.5 0.0
02/07:58am 19.0 20.1 18.0 94 0.6 SE 9 13 5 7 1014.7 1014.5 0.0
02/07:30am 16.3 16.9 15.3 94 0.6 S 6 7 3 4 1014.3 1014.1 0.0
02/07:21am 16.1 16.6 15.0 93 0.6 SSE 6 7 3 4 1014.4 1014.2 0.0
02/07:00am 16.0 16.3 14.9 93 0.6 SSE 7 9 4 5 1014.2 1014.0 0.0
02/06:30am 16.6 16.8 15.8 95 0.5 SSE 9 13 5 7 1014.1 1013.9 0.0
02/06:00am 16.2 16.5 15.1 93 0.6 S 7 11 4 6 1013.9 1013.7 0.0
02/05:30am 17.0 17.3 15.9 93 0.6 SSW 9 13 5 7 1014.0 1013.8 0.0
02/05:00am 17.5 17.7 15.8 90 1.0 S 9 11 5 6 1014.1 1013.9 0.0
02/04:45am 18.3 19.0 17.0 92 0.8 SSE 9 13 5 7 1014.1 1013.9 0.0
02/04:30am 17.8 18.5 16.0 89 1.1 SSE 7 9 4 5 1014.2 1014.0 0.0
02/04:20am 18.0 18.8 15.8 87 1.3 S 6 7 3 4 1014.2 1014.0 0.0
02/04:00am 19.0 20.1 17.1 89 1.2 S 7 11 4 6 1014.2 1014.0 0.0
02/03:30am 19.0 19.2 16.8 87 1.3 SE 11 13 6 7 1014.1 1013.9 0.0
02/03:00am 19.7 20.0 16.9 84 1.7 SE 11 15 6 8 1014.1 1013.9 0.0
02/02:30am 20.3 20.2 16.9 81 2.1 SE 13 17 7 9 1014.2 1014.0 0.0
02/02:00am 20.8 20.6 16.8 78 2.4 ESE 13 19 7 10 1014.4 1014.2 0.0
02/01:30am 21.3 20.4 16.9 76 2.7 ESE 17 22 9 12 1014.4 1014.2 0.0
02/01:00am 21.8 20.5 16.7 73 3.1 ESE 19 26 10 14 1014.5 1014.3 0.0
02/12:30am 22.3 20.6 16.3 69 3.6 ESE 20 26 11 14 1014.4 1014.2 0.0
02/12:00am 22.6 20.7 15.7 65 4.1 ESE 20 28 11 15 1014.3 1014.1 0.0
 
Date/Time
CST
Temp
°C
App
Temp
°C
Dew
Point
°C
Rel
Hum
%
Delta-T
°C
Wind Press
QNH
hPa
Press
MSL
hPa
Rain since
9am
mm
Dir  Spd
km/h
Gust
km/h
Spd
kts
Gust
kts
01/11:30pm 23.0 20.9 14.8 60 4.9 ESE 19 28 10 15 1014.3 1014.1 0.0
01/11:00pm 23.4 21.4 13.8 54 5.6 ESE 17 22 9 12 1014.3 1014.1 0.0
01/10:30pm 23.6 22.0 15.1 59 5.1 ESE 17 26 9 14 1014.2 1014.0 0.0
01/10:00pm 23.6 24.6 19.5 78 2.6 E 13 20 7 11 1014.0 1013.8 0.0
01/09:30pm 23.7 25.3 20.0 80 2.4 E 11 19 6 10 1013.7 1013.5 0.0
01/09:00pm 23.9 24.9 19.4 76 2.9 E 13 20 7 11 1013.5 1013.3 0.0
01/08:30pm 23.7 23.8 16.5 64 4.4 E 11 22 6 12 1013.2 1013.0 0.0
01/08:00pm 23.7 24.4 17.0 66 4.1 ESE 9 9 5 5 1012.9 1012.7 0.0
01/07:30pm 24.1 25.4 17.6 67 4.1 ESE 7 11 4 6 1012.5 1012.3 0.0
01/07:00pm 24.6 25.3 17.1 63 4.6 E 9 13 5 7 1011.9 1011.7 0.0
01/06:30pm 25.6 25.2 15.3 53 6.2 ENE 11 17 6 9 1011.4 1011.2 0.0
01/06:00pm 27.2 26.8 14.2 44 7.8 ENE 9 13 5 7 1010.9 1010.8 0.0
01/05:30pm 28.1 26.8 13.6 41 8.6 ENE 13 19 7 10 1010.7 1010.6 0.0
01/05:00pm 28.4 26.9 14.3 42 8.5 NE 15 22 8 12 1010.7 1010.6 0.0
01/04:30pm 29.6 28.0 13.8 38 9.5 NE 15 20 8 11 1010.6 1010.5 0.0
01/04:00pm 29.9 27.9 12.8 35 10.1 NE 15 22 8 12 1010.6 1010.5 0.0
01/03:30pm 29.3 27.6 12.3 35 10.0 ENE 13 20 7 11 1010.8 1010.7 0.0
01/03:00pm 30.5 27.9 11.9 31 10.9 ESE 17 28 9 15 1011.0 1010.9 0.0
01/02:30pm 30.6 27.6 10.5 29 11.5 ESE 17 32 9 17 1011.6 1011.4 0.0
01/02:00pm 29.6 26.6 12.1 34 10.2 E 19 32 10 17 1012.1 1011.9 0.0
01/01:30pm 29.8 26.4 10.4 30 11.0 ESE 19 35 10 19 1012.4 1012.2 0.0
01/01:00pm 29.8 26.4 10.4 30 11.0 ESE 19 30 10 16 1012.9 1012.7 0.0
01/12:30pm 28.7 24.9 8.9 29 10.9 ESE 19 35 10 19 1013.3 1013.1 0.0
01/12:00pm 29.1 24.4 9.3 29 11.0 SE 24 37 13 20 1013.9 1013.7 0.0
01/11:30am 28.4 24.6 9.2 30 10.6 ESE 19 30 10 16 1014.3 1014.1 0.0
01/11:00am 27.9 23.7 8.2 29 10.7 ESE 20 30 11 16 1014.5 1014.3 0.0
01/10:30am 26.3 21.7 8.3 32 9.7 ESE 22 35 12 19 1014.9 1014.7 0.0
01/10:00am 25.8 22.8 10.8 39 8.4 ESE 17 26 9 14 1015.0 1014.8 0.0
01/09:30am 24.5 21.7 12.5 47 6.9 SE 19 32 10 17 1015.2 1015.0 0.0
01/09:00am 22.9 20.5 13.9 57 5.3 SE 19 26 10 14 1015.0 1014.8 0.0
01/08:30am 21.3 20.1 16.0 72 3.2 SSE 17 28 9 15 1014.7 1014.5 0.0
01/08:00am 18.8 19.5 17.1 90 1.0 SSE 9 15 5 8 1014.3 1014.1 0.0
01/07:30am 18.1 18.8 17.1 94 0.6 S 9 13 5 7 1014.3 1014.1 0.0
01/07:23am 17.8 18.4 16.8 94 0.6 S 9 11 5 6 1014.3 1014.1 0.0
01/07:00am 17.5 18.3 16.4 93 0.7 S 7 11 4 6 1014.2 1014.0 0.0
01/06:42am 17.5 17.9 16.2 92 0.8 S 9 13 5 7 1014.0 1013.8 0.0

Other formats

Comma delimited format used in spreadsheet applications
http://www.bom.gov.au/fwo/IDD60801/IDD60801.95142.axf

JavaScript Object Notation format (JSON) in row-major order
http://www.bom.gov.au/fwo/IDD60801/IDD60801.95142.json

Data quality

Most of these data are generated automatically and are frequently updated. Quality checks on data are not normally performed. It is possible for incorrect values to appear. Refer to information at About Latest Weather Observations and please check the disclaimer before using these data.